Time;durP1;ratioP1;P1;durP2;ratioP2;P2;SDS_P1;SDS_P2;PMS_P1;PMS_P2;Temp;Humidity;BMP_temperature;BMP_pressure;BME280_temperature;BME280_humidity;BME280_pressure;Samples;Min_cycle;Max_cycle;Signal;HPM_P1;HPM_P2
2021/01/08 00:02:19;;;;;;;12.32;6.07;;;154.00;2252.80;;;;;;5086055;28;20043;-65
2021/01/08 00:04:45;;;;;;;11.57;4.78;;;153.80;2252.80;;;;;;5085038;28;20021;-66
2021/01/08 00:07:12;;;;;;;8.73;3.40;;;153.70;2252.80;;;;;;5084781;28;20124;-65
2021/01/08 00:09:38;;;;;;;9.70;4.28;;;128.90;2252.80;;;;;;5085058;28;20305;-65
2021/01/08 00:12:05;;;;;;;8.90;4.45;;;128.90;2252.80;;;;;;5084678;28;20036;-67
2021/01/08 00:14:31;;;;;;;10.32;4.13;;;153.80;2252.80;;;;;;5084359;28;20020;-65
2021/01/08 00:16:57;;;;;;;11.80;3.70;;;153.70;2252.80;;;;;;5085855;28;20098;-64
2021/01/08 00:19:23;;;;;;;5.93;3.53;;;153.70;2252.80;;;;;;5084321;28;20107;-67
2021/01/08 00:21:49;;;;;;;5.75;3.50;;;153.80;2252.80;;;;;;5084621;28;20158;-65
2021/01/08 00:24:15;;;;;;;6.95;3.90;;;154.00;2252.80;;;;;;5085545;28;20401;-65
2021/01/08 00:26:41;;;;;;;9.00;4.47;;;153.90;2252.80;;;;;;5084301;28;20357;-66
2021/01/08 00:29:12;;;;;;;6.70;3.90;;;153.90;2252.80;;;;;;5084318;28;20337;-65
2021/01/08 00:31:46;;;;;;;7.68;4.40;;;154.00;2252.80;;;;;;5083554;28;20101;-65
2021/01/08 00:34:14;;;;;;;5.32;3.03;;;153.80;2252.80;;;;;;5083811;28;20066;-64
2021/01/08 00:36:49;;;;;;;6.22;3.03;;;153.70;2252.80;;;;;;5083815;28;20052;-65
2021/01/08 00:39:16;;;;;;;5.40;2.30;;;153.70;2252.80;;;;;;5083149;28;20035;-65
2021/01/08 00:41:42;;;;;;;5.22;2.47;;;153.80;2252.80;;;;;;5084961;28;20063;-64
2021/01/08 00:44:07;;;;;;;4.30;2.17;;;154.00;2252.80;;;;;;5094059;28;20484;-65
2021/01/08 00:46:35;;;;;;;7.25;2.10;;;153.90;2252.80;;;;;;5095154;28;20062;-66
2021/01/08 00:49:06;;;;;;;5.35;2.55;;;154.00;2252.80;;;;;;5095762;28;20114;-67
2021/01/08 00:51:33;;;;;;;6.35;2.72;;;154.00;2252.80;;;;;;5094130;28;20073;-65
2021/01/08 00:53:59;;;;;;;7.38;2.05;;;154.00;2252.80;;;;;;5095728;28;20040;-64
2021/01/08 00:56:25;;;;;;;3.40;1.98;;;153.90;2252.80;;;;;;5095698;28;20028;-65
2021/01/08 00:58:51;;;;;;;4.95;2.28;;;154.00;2252.80;;;;;;5095457;28;20035;-66
2021/01/08 01:01:18;;;;;;;6.35;2.45;;;153.70;2252.80;;;;;;5095762;28;20032;-64
2021/01/08 01:03:45;;;;;;;3.70;2.10;;;128.90;2252.80;;;;;;5095949;28;20723;-65
2021/01/08 01:06:11;;;;;;;5.38;2.53;;;128.70;2252.80;;;;;;5095063;28;20225;-65
2021/01/08 01:08:37;;;;;;;5.25;1.55;;;128.70;2252.80;;;;;;5095535;28;20439;-66
2021/01/08 01:11:03;;;;;;;3.53;1.70;;;128.60;2252.80;;;;;;5095562;28;20032;-66
2021/01/08 01:13:29;;;;;;;3.50;1.50;;;128.50;2252.80;;;;;;5095548;28;20189;-65
2021/01/08 01:15:55;;;;;;;2.40;1.50;;;128.50;2252.80;;;;;;5080190;28;20040;-65
2021/01/08 01:18:21;;;;;;;3.83;1.60;;;128.70;2252.80;;;;;;5094051;28;20023;-65
2021/01/08 01:20:47;;;;;;;2.22;1.30;;;128.70;2252.80;;;;;;5097618;28;20024;-66
2021/01/08 01:23:13;;;;;;;3.17;1.38;;;128.90;2252.80;;;;;;5097562;28;20032;-64
2021/01/08 01:25:39;;;;;;;3.25;1.30;;;153.60;2252.80;;;;;;5097864;28;20028;-65
2021/01/08 01:28:05;;;;;;;2.05;1.10;;;128.90;2252.80;;;;;;5097192;28;20069;-66
2021/01/08 01:30:32;;;;;;;3.22;1.42;;;153.60;2252.80;;;;;;5097737;28;20028;-66
2021/01/08 01:32:58;;;;;;;2.65;1.13;;;153.60;2252.80;;;;;;5097385;28;20024;-66
2021/01/08 01:35:25;;;;;;;2.83;1.33;;;153.60;2252.80;;;;;;5097477;28;20032;-66
2021/01/08 01:37:52;;;;;;;2.97;1.45;;;153.70;2252.80;;;;;;5097021;28;20056;-65
2021/01/08 01:40:19;;;;;;;3.08;1.52;;;153.60;2252.80;;;;;;5097426;28;20032;-66
2021/01/08 01:42:45;;;;;;;3.67;2.00;;;153.70;2252.80;;;;;;5097236;28;20020;-65
2021/01/08 01:45:11;;;;;;;2.35;1.48;;;128.90;2252.80;;;;;;5097378;28;20470;-65
2021/01/08 01:47:38;;;;;;;2.67;1.08;;;128.80;2252.80;;;;;;5097574;28;20065;-66
2021/01/08 01:50:04;;;;;;;6.38;1.55;;;128.70;2252.80;;;;;;5096690;28;20028;-66
2021/01/08 01:52:30;;;;;;;2.53;1.25;;;128.60;2252.80;;;;;;5097475;28;20028;-65
2021/01/08 01:54:57;;;;;;;2.58;1.55;;;128.50;2252.80;;;;;;5096648;28;20077;-67
2021/01/08 01:57:23;;;;;;;1.85;0.93;;;128.50;2252.80;;;;;;5097542;28;20020;-65
2021/01/08 01:59:48;;;;;;;4.80;1.20;;;128.50;2252.80;;;;;;5097228;28;20031;-66
2021/01/08 02:02:28;;;;;;;4.90;1.27;;;128.60;2252.80;;;;;;5098142;28;20065;-65
2021/01/08 02:04:56;;;;;;;6.35;1.17;;;128.80;2252.80;;;;;;5101613;28;20115;-65
2021/01/08 02:07:24;;;;;;;2.47;1.20;;;128.80;2252.80;;;;;;5101526;28;20409;-65
2021/01/08 02:09:52;;;;;;;1.88;1.02;;;128.90;2252.80;;;;;;5100895;28;20405;-66
2021/01/08 02:12:19;;;;;;;1.45;0.85;;;153.60;2252.80;;;;;;5101132;28;20058;-66
2021/01/08 02:14:46;;;;;;;1.70;0.90;;;153.60;2252.80;;;;;;5100819;28;20114;-65
2021/01/08 02:17:15;;;;;;;1.98;0.98;;;128.90;2252.80;;;;;;5100777;28;20047;-64
2021/01/08 02:19:55;;;;;;;1.88;0.85;;;128.90;2252.80;;;;;;5101046;28;20055;-66
2021/01/08 02:22:26;;;;;;;2.05;1.30;;;153.60;2252.80;;;;;;5100996;28;20433;-66
2021/01/08 02:25:07;;;;;;;1.73;0.77;;;128.90;2252.80;;;;;;5100698;28;20023;-65
2021/01/08 02:27:35;;;;;;;2.90;1.00;;;128.90;2252.80;;;;;;5100331;28;20020;-65
2021/01/08 02:30:02;;;;;;;1.67;0.90;;;128.90;2252.80;;;;;;5100800;28;20024;-66
2021/01/08 02:32:29;;;;;;;2.47;0.90;;;128.90;2252.80;;;;;;5100967;28;20055;-66
2021/01/08 02:34:55;;;;;;;1.77;0.90;;;128.80;2252.80;;;;;;5100824;28;20028;-66
2021/01/08 02:37:21;;;;;;;5.13;0.98;;;128.90;2252.80;;;;;;5100466;28;20444;-64
2021/01/08 02:39:48;;;;;;;1.70;0.90;;;128.80;2252.80;;;;;;5100283;28;20016;-65
2021/01/08 02:42:15;;;;;;;2.47;1.05;;;128.80;2252.80;;;;;;5100861;28;20024;-64
2021/01/08 02:44:42;;;;;;;3.53;0.95;;;128.80;2252.80;;;;;;5100228;28;20047;-65
2021/01/08 02:47:08;;;;;;;4.53;1.10;;;128.80;2252.80;;;;;;5100474;28;20513;-65
2021/01/08 02:49:34;;;;;;;1.98;1.13;;;128.70;2252.80;;;;;;5100454;28;20019;-64
2021/01/08 02:52:04;;;;;;;1.83;1.00;;;128.80;2252.80;;;;;;5100319;28;20366;-64
2021/01/08 02:54:31;;;;;;;3.60;1.00;;;128.80;2252.80;;;;;;5100379;28;20031;-66
2021/01/08 02:56:58;;;;;;;1.80;0.95;;;128.80;2252.80;;;;;;5100027;28;20341;-65
2021/01/08 02:59:24;;;;;;;2.47;1.02;;;128.80;2252.80;;;;;;5099688;28;20133;-64
2021/01/08 03:01:52;;;;;;;1.65;1.00;;;128.70;2252.80;;;;;;5100190;28;20051;-65
2021/01/08 03:04:18;;;;;;;2.25;1.20;;;128.70;2252.80;;;;;;5099730;28;20027;-68
2021/01/08 03:06:45;;;;;;;2.15;1.20;;;128.60;2252.80;;;;;;5100074;28;20024;-66
2021/01/08 03:09:11;;;;;;;2.13;1.13;;;128.40;2252.80;;;;;;5100280;28;20031;-66
2021/01/08 03:11:37;;;;;;;2.05;1.13;;;128.40;2252.80;;;;;;5099964;28;20028;-65
2021/01/08 03:14:05;;;;;;;14.48;1.90;;;128.30;2252.80;;;;;;5099650;28;20024;-65
2021/01/08 03:16:31;;;;;;;2.47;1.00;;;128.30;2252.80;;;;;;5100328;28;20030;-65
2021/01/08 03:18:58;;;;;;;0.98;0.80;;;128.60;2252.80;;;;;;5099902;28;20053;-66
2021/01/08 03:21:23;;;;;;;2.15;1.00;;;128.40;2252.80;;;;;;5099467;28;20031;-67
2021/01/08 03:23:49;;;;;;;2.17;1.13;;;128.40;2252.80;;;;;;5099513;28;20333;-66
2021/01/08 03:26:15;;;;;;;1.55;1.00;;;128.50;2252.80;;;;;;5099483;28;20393;-65
2021/01/08 03:28:41;;;;;;;1.23;0.90;;;128.50;2252.80;;;;;;5099581;28;20097;-66
2021/01/08 03:31:07;;;;;;;3.28;1.20;;;128.50;2252.80;;;;;;5100034;28;20383;-66
2021/01/08 03:33:32;;;;;;;1.88;1.13;;;128.50;2252.80;;;;;;5099342;28;20429;-67
2021/01/08 03:35:58;;;;;;;1.83;1.10;;;128.40;2252.80;;;;;;5099469;28;20055;-65
2021/01/08 03:38:24;;;;;;;1.60;1.00;;;128.50;2252.80;;;;;;5099901;28;20132;-65
2021/01/08 03:40:50;;;;;;;3.45;1.08;;;128.40;2252.80;;;;;;5099400;28;20031;-65
2021/01/08 03:43:15;;;;;;;0.80;0.50;;;128.30;2252.80;;;;;;5099371;28;20035;-66
2021/01/08 03:45:41;;;;;;;0.85;0.60;;;128.40;2252.80;;;;;;5099342;28;20020;-66
2021/01/08 03:48:07;;;;;;;0.90;0.52;;;128.50;2252.80;;;;;;5098981;28;20077;-65
2021/01/08 03:50:33;;;;;;;0.88;0.55;;;128.60;2252.80;;;;;;5099466;28;20081;-66
2021/01/08 03:52:59;;;;;;;1.17;0.63;;;128.60;2252.80;;;;;;5099156;28;20077;-67
2021/01/08 03:55:24;;;;;;;0.80;0.52;;;128.60;2252.80;;;;;;5099153;28;20337;-66
2021/01/08 03:57:50;;;;;;;0.95;0.65;;;128.60;2252.80;;;;;;5099655;28;20107;-66
2021/01/08 04:00:16;;;;;;;0.95;0.60;;;128.70;2252.80;;;;;;5099347;28;20063;-64
2021/01/08 04:02:42;;;;;;;0.60;0.50;;;128.70;2252.80;;;;;;5093560;28;20341;-66
2021/01/08 04:05:09;;;;;;;0.57;0.52;;;128.60;2252.80;;;;;;5078632;28;20103;-66
2021/01/08 04:07:34;;;;;;;1.50;0.82;;;128.50;2252.80;;;;;;5078900;28;20115;-66
2021/01/08 04:10:00;;;;;;;0.50;0.50;;;128.60;2252.80;;;;;;5078589;28;20112;-65
2021/01/08 04:12:26;;;;;;;1.50;0.90;;;128.50;2252.80;;;;;;5078241;28;20028;-65
2021/01/08 04:14:51;;;;;;;1.10;0.65;;;128.50;2252.80;;;;;;5077942;28;20082;-65
2021/01/08 04:17:17;;;;;;;0.90;0.80;;;128.30;2252.80;;;;;;5078735;28;20024;-65
2021/01/08 04:19:43;;;;;;;3.25;1.00;;;128.40;2252.80;;;;;;5090576;28;20333;-65
2021/01/08 04:22:09;;;;;;;2.45;1.40;;;128.30;2252.80;;;;;;5098339;28;20092;-65
2021/01/08 04:24:34;;;;;;;2.58;1.30;;;128.30;2252.80;;;;;;5098590;28;20286;-64
2021/01/08 04:27:00;;;;;;;3.53;1.58;;;128.40;2252.80;;;;;;5097680;28;20522;-68
2021/01/08 04:29:26;;;;;;;3.28;1.60;;;128.50;2252.80;;;;;;5097911;28;20413;-64
2021/01/08 04:31:52;;;;;;;2.55;1.67;;;128.40;2252.80;;;;;;5098360;28;20024;-64
2021/01/08 04:34:17;;;;;;;3.95;2.10;;;128.50;2252.80;;;;;;5097821;28;20117;-66
2021/01/08 04:36:43;;;;;;;3.10;1.65;;;128.40;2252.80;;;;;;5092176;28;20052;-63
2021/01/08 04:39:09;;;;;;;2.15;1.40;;;128.30;2252.80;;;;;;5077997;28;20024;-66
2021/01/08 04:41:36;;;;;;;3.10;1.77;;;128.30;2252.80;;;;;;5078225;28;20036;-66
2021/01/08 04:44:03;;;;;;;3.70;1.70;;;128.20;2252.80;;;;;;5077998;28;20025;-66
2021/01/08 04:46:31;;;;;;;2.38;1.70;;;128.20;2252.80;;;;;;5077862;28;20032;-65
2021/01/08 04:49:03;;;;;;;3.90;1.30;;;128.10;2252.80;;;;;;5077954;28;20021;-66
2021/01/08 04:51:30;;;;;;;3.15;1.40;;;128.10;2252.80;;;;;;5080485;28;20489;-67
2021/01/08 04:53:56;;;;;;;2.38;1.50;;;128.10;2252.80;;;;;;5088149;28;20031;-65
2021/01/08 04:56:26;;;;;;;2.78;1.63;;;128.10;2252.80;;;;;;5080445;28;20051;-66
2021/01/08 04:58:52;;;;;;;3.35;2.28;;;128.00;2252.80;;;;;;5089327;28;20437;-66
2021/01/08 05:01:19;;;;;;;3.78;2.22;;;103.30;2227.20;;;;;;5081999;28;20120;-66
2021/01/08 05:03:45;;;;;;;3.75;2.40;;;103.20;2227.20;;;;;;5077632;28;20035;-66
2021/01/08 05:06:11;;;;;;;4.32;2.78;;;103.20;2227.20;;;;;;5077560;28;20091;-66
2021/01/08 05:08:37;;;;;;;5.22;3.30;;;103.20;2227.20;;;;;;5080121;28;20058;-66
2021/01/08 05:11:26;;;;;;;4.45;2.83;;;103.20;2227.20;;;;;;5086079;28;20103;-66
2021/01/08 05:13:55;;;;;;;5.40;2.67;;;103.20;2227.20;;;;;;5087678;28;20418;-64
2021/01/08 05:16:23;;;;;;;4.70;2.92;;;103.20;2227.20;;;;;;5077369;28;20024;-65
2021/01/08 05:18:50;;;;;;;4.38;3.03;;;103.20;2227.20;;;;;;5085460;28;20027;-67
2021/01/08 05:21:17;;;;;;;4.10;2.88;;;103.10;2227.20;;;;;;5086830;28;20027;-67
2021/01/08 05:23:43;;;;;;;4.38;2.83;;;103.20;2227.20;;;;;;5077349;28;20169;-66
2021/01/08 05:26:13;;;;;;;4.40;2.90;;;103.20;2227.20;;;;;;5076746;28;20035;-66
2021/01/08 05:28:39;;;;;;;4.35;3.03;;;128.00;2252.80;;;;;;5097209;28;20067;-66
2021/01/08 05:31:07;;;;;;;4.00;2.50;;;128.00;2252.80;;;;;;5097751;28;20024;-66
2021/01/08 05:33:34;;;;;;;3.72;2.55;;;128.10;2252.80;;;;;;5096987;28;20413;-65
2021/01/08 05:35:59;;;;;;;4.18;2.88;;;128.20;2252.80;;;;;;5097435;28;20069;-66
2021/01/08 05:38:28;;;;;;;3.72;2.40;;;128.30;2252.80;;;;;;5096541;28;20051;-66
2021/01/08 05:41:02;;;;;;;4.00;2.45;;;128.40;2252.80;;;;;;5095416;28;20031;-67
2021/01/08 05:43:29;;;;;;;6.55;2.63;;;128.00;2252.80;;;;;;5095622;28;20035;-67
2021/01/08 05:46:09;;;;;;;5.28;2.40;;;128.00;2252.80;;;;;;5095274;28;20035;-68
2021/01/08 05:48:38;;;;;;;3.55;2.08;;;128.00;2252.80;;;;;;5095516;28;20492;-66
2021/01/08 05:51:05;;;;;;;3.35;1.85;;;128.30;2252.80;;;;;;5095466;28;20024;-68
2021/01/08 05:53:33;;;;;;;4.20;2.50;;;128.10;2252.80;;;;;;5096659;28;20063;-65
2021/01/08 05:55:59;;;;;;;4.18;2.70;;;128.20;2252.80;;;;;;5097556;28;20110;-66
2021/01/08 05:58:26;;;;;;;3.65;2.03;;;128.10;2252.80;;;;;;5096878;28;20067;-65
2021/01/08 06:01:00;;;;;;;12.10;6.28;;;128.00;2252.80;;;;;;5096919;28;20031;-67
2021/01/08 06:03:26;;;;;;;14.18;6.93;;;128.00;2252.80;;;;;;5097187;28;20023;-66
2021/01/08 06:05:54;;;;;;;13.93;7.68;;;103.30;2227.20;;;;;;5096919;28;20115;-66
2021/01/08 06:08:44;;;;;;;16.30;14.52;;;103.10;2227.20;;;;;;5096862;28;20032;-64
2021/01/08 06:11:17;;;;;;;11.15;9.55;;;103.00;2227.20;;;;;;5086075;28;20341;-67
2021/01/08 06:13:45;;;;;;;11.95;9.85;;;102.80;2227.20;;;;;;5096952;28;20035;-66
2021/01/08 06:16:17;;;;;;;15.95;9.90;;;102.40;2227.20;;;;;;5096786;28;20169;-65
2021/01/08 06:18:44;;;;;;;34.92;22.38;;;102.70;2227.20;;;;;;5097082;28;20064;-66
2021/01/08 06:21:10;;;;;;;27.90;20.30;;;102.80;2227.20;;;;;;5097081;28;20032;-66
2021/01/08 06:23:46;;;;;;;23.63;15.35;;;102.80;2227.20;;;;;;5096931;28;20026;-65
2021/01/08 06:26:19;;;;;;;3.53;2.00;;;103.00;2227.20;;;;;;5094604;28;20062;-66
2021/01/08 06:28:47;;;;;;;5.38;2.15;;;102.90;2227.20;;;;;;5094899;28;20432;-66
2021/01/08 06:31:25;;;;;;;5.90;4.90;;;103.10;2227.20;;;;;;5091820;28;20032;-66
2021/01/08 06:33:56;;;;;;;5.22;3.50;;;102.70;2227.20;;;;;;5085142;28;20106;-68
2021/01/08 06:36:23;;;;;;;3.97;2.50;;;102.70;2227.20;;;;;;5083308;28;20059;-66
2021/01/08 06:38:52;;;;;;;3.63;2.50;;;102.80;2227.20;;;;;;5083031;28;20028;-68
2021/01/08 06:41:19;;;;;;;3.40;2.03;;;102.80;2227.20;;;;;;5082949;28;20480;-67
2021/01/08 06:43:51;;;;;;;3.33;2.20;;;102.90;2227.20;;;;;;5083387;28;20047;-67
2021/01/08 06:46:39;;;;;;;3.70;2.40;;;102.80;2227.20;;;;;;5077007;28;20115;-66
2021/01/08 06:49:12;;;;;;;3.95;2.58;;;102.80;2227.20;;;;;;5076291;28;20025;-67
2021/01/08 06:51:39;;;;;;;4.50;2.80;;;102.70;2227.20;;;;;;5077850;28;20033;-67
2021/01/08 06:54:07;;;;;;;4.88;3.13;;;102.70;2227.20;;;;;;5077417;28;20399;-66
2021/01/08 06:56:40;;;;;;;4.85;2.85;;;102.70;2227.20;;;;;;5077801;28;20025;-67
2021/01/08 06:59:07;;;;;;;4.97;2.80;;;102.80;2227.20;;;;;;5077979;28;20104;-68
2021/01/08 07:01:54;;;;;;;4.57;2.95;;;102.80;2227.20;;;;;;5077123;28;20035;-66
2021/01/08 07:04:22;;;;;;;3.55;2.30;;;102.90;2227.20;;;;;;5082820;28;20298;-68
2021/01/08 07:06:49;;;;;;;3.80;2.40;;;102.70;2227.20;;;;;;5087991;28;20031;-66
2021/01/08 07:09:15;;;;;;;4.03;2.58;;;102.70;2227.20;;;;;;5086551;28;20028;-65
2021/01/08 07:11:41;;;;;;;4.75;3.25;;;102.60;2227.20;;;;;;5086474;28;20024;-68
2021/01/08 07:14:14;;;;;;;4.32;2.70;;;102.50;2227.20;;;;;;5088127;28;20747;-67
2021/01/08 07:16:45;;;;;;;3.60;2.38;;;102.50;2227.20;;;;;;5080133;28;20036;-66
2021/01/08 07:19:13;;;;;;;3.72;2.40;;;102.50;2227.20;;;;;;5077534;28;20028;-67
2021/01/08 07:21:44;;;;;;;4.97;3.10;;;102.60;2227.20;;;;;;5077316;28;20081;-67
2021/01/08 07:24:12;;;;;;;5.78;3.40;;;102.60;2227.20;;;;;;5081827;28;20039;-66
2021/01/08 07:26:38;;;;;;;3.22;2.13;;;102.60;2227.20;;;;;;5097638;28;20054;-68
2021/01/08 07:29:07;;;;;;;4.78;2.70;;;102.60;2227.20;;;;;;5086705;28;20040;-66
2021/01/08 07:31:35;;;;;;;5.10;3.15;;;102.70;2227.20;;;;;;5082542;28;20126;-67
2021/01/08 07:34:03;;;;;;;3.95;2.70;;;102.70;2227.20;;;;;;5077394;28;20040;-67
2021/01/08 07:36:30;;;;;;;5.95;3.90;;;102.60;2227.20;;;;;;5076594;28;20421;-67
2021/01/08 07:38:56;;;;;;;11.13;7.13;;;102.60;2227.20;;;;;;5076433;28;20429;-68
2021/01/08 07:41:31;;;;;;;13.32;7.15;;;102.70;2227.20;;;;;;5077117;28;20025;-67
2021/01/08 07:43:57;;;;;;;9.93;6.07;;;102.70;2227.20;;;;;;5076899;28;20111;-67
2021/01/08 07:46:30;;;;;;;11.68;6.85;;;102.70;2227.20;;;;;;5077258;28;20568;-65
2021/01/08 07:48:58;;;;;;;14.90;7.85;;;102.80;2227.20;;;;;;5084296;28;20063;-68
2021/01/08 07:51:43;;;;;;;13.07;7.35;;;102.80;2227.20;;;;;;5077297;28;20059;-68
2021/01/08 07:54:09;;;;;;;13.52;7.18;;;102.70;2227.20;;;;;;5078238;28;20072;-68
2021/01/08 07:56:35;;;;;;;12.18;7.63;;;102.90;2227.20;;;;;;5082363;28;20421;-67
2021/01/08 07:59:04;;;;;;;11.63;6.57;;;102.80;2227.20;;;;;;5097495;28;20024;-68
2021/01/08 08:01:35;;;;;;;10.70;6.07;;;102.80;2227.20;;;;;;5098653;28;20027;-67
2021/01/08 08:04:07;;;;;;;16.52;10.32;;;103.00;2227.20;;;;;;5098509;28;20020;-66
2021/01/08 08:06:40;;;;;;;11.32;8.07;;;102.90;2227.20;;;;;;5098360;28;20023;-69
2021/01/08 08:09:11;;;;;;;6.13;4.35;;;103.10;2227.20;;;;;;5091920;28;20016;-67
2021/01/08 08:11:37;;;;;;;6.38;4.03;;;102.80;2227.20;;;;;;5078569;28;20025;-66
2021/01/08 08:14:12;;;;;;;5.32;3.53;;;102.80;2227.20;;;;;;5078188;28;20086;-68
2021/01/08 08:16:39;;;;;;;5.97;3.90;;;102.90;2227.20;;;;;;5078482;28;20111;-68
2021/01/08 08:19:06;;;;;;;6.28;3.60;;;102.90;2227.20;;;;;;5078274;28;20448;-68
2021/01/08 08:21:32;;;;;;;5.95;3.90;;;102.80;2227.20;;;;;;5077484;28;20036;-67
2021/01/08 08:24:01;;;;;;;7.13;3.67;;;102.70;2227.20;;;;;;5078665;28;20480;-67
2021/01/08 08:26:29;;;;;;;6.32;4.00;;;102.80;2227.20;;;;;;5077486;28;20021;-69
2021/01/08 08:29:04;;;;;;;6.35;3.15;;;102.60;2227.20;;;;;;5076472;28;20020;-67
2021/01/08 08:31:32;;;;;;;5.93;4.20;;;102.90;2227.20;;;;;;5077783;28;20035;-66
2021/01/08 08:33:59;;;;;;;5.90;4.47;;;103.00;2227.20;;;;;;5078045;28;20035;-69
2021/01/08 08:36:26;;;;;;;5.13;3.15;;;103.20;2227.20;;;;;;5077548;28;20028;-68
2021/01/08 08:39:15;;;;;;;5.13;3.50;;;103.10;2227.20;;;;;;5091263;28;20023;-71
2021/01/08 08:41:48;;;;;;;5.22;3.53;;;103.20;2227.20;;;;;;5116691;28;20023;-67
2021/01/08 08:44:18;;;;;;;4.90;3.47;;;103.20;2227.20;;;;;;5116767;28;20441;-67
2021/01/08 08:46:48;;;;;;;6.47;3.72;;;102.70;2227.20;;;;;;5104063;28;20435;-66
2021/01/08 08:49:24;;;;;;;8.10;5.65;;;102.80;2227.20;;;;;;5097673;28;20058;-65
2021/01/08 08:51:53;;;;;;;5.25;3.65;;;102.90;2227.20;;;;;;5096804;28;20031;-65
2021/01/08 08:54:24;;;;;;;5.22;3.88;;;102.60;2227.20;;;;;;5090777;28;20252;-68
2021/01/08 08:57:01;;;;;;;78.20;70.88;;;102.60;2227.20;;;;;;5092081;28;20054;-71
2021/01/08 08:59:42;;;;;;;16.38;14.00;;;103.00;2227.20;;;;;;5095701;28;20038;-67
2021/01/08 09:02:29;;;;;;;13.30;9.85;;;103.00;2227.20;;;;;;5097105;28;20028;-66
2021/01/08 09:05:04;;;;;;;11.02;7.40;;;102.90;2227.20;;;;;;5096398;28;20390;-68
2021/01/08 09:07:54;;;;;;;7.20;5.55;;;103.20;2227.20;;;;;;5088687;28;20016;-67
2021/01/08 09:10:29;;;;;;;5.63;4.07;;;128.00;2252.80;;;;;;5085983;28;20491;-70
2021/01/08 09:12:58;;;;;;;5.70;4.40;;;128.20;2252.80;;;;;;5081883;28;20044;-68
2021/01/08 09:15:31;;;;;;;6.65;4.70;;;128.20;2252.80;;;;;;5085284;28;20099;-70
2021/01/08 09:18:36;;;;;;;5.80;3.88;;;128.40;2252.80;;;;;;5083741;28;20021;-71
2021/01/08 09:21:23;;;;;;;5.45;3.65;;;128.30;2252.80;;;;;;5084188;28;20036;-67
2021/01/08 09:23:53;;;;;;;6.78;5.03;;;128.20;2252.80;;;;;;5089255;28;20016;-67
2021/01/08 09:26:22;;;;;;;6.28;3.95;;;128.20;2252.80;;;;;;5096250;28;20070;-67
2021/01/08 09:28:55;;;;;;;5.38;3.53;;;128.20;2252.80;;;;;;5095945;28;20048;-67
2021/01/08 09:31:43;;;;;;;4.70;2.92;;;128.20;2252.80;;;;;;5096492;28;20081;-69
2021/01/08 09:34:24;;;;;;;5.38;3.40;;;128.10;2252.80;;;;;;5084832;28;20028;-68
2021/01/08 09:36:54;;;;;;;4.78;3.20;;;128.00;2252.80;;;;;;5085441;28;20045;-67
2021/01/08 09:39:23;;;;;;;4.95;3.30;;;128.10;2252.80;;;;;;5084958;28;20081;-71
2021/01/08 09:42:00;;;;;;;11.68;8.68;;;128.00;2252.80;;;;;;5085944;28;20027;-67
2021/01/08 09:44:31;;;;;;;4.55;2.70;;;128.30;2252.80;;;;;;5083812;28;20020;-67
2021/01/08 09:47:07;;;;;;;4.43;2.70;;;128.20;2252.80;;;;;;5086265;28;20111;-67
2021/01/08 09:49:51;;;;;;;5.97;3.60;;;128.10;2252.80;;;;;;5085666;28;20024;-66
2021/01/08 09:52:17;;;;;;;8.93;5.32;;;128.20;2252.80;;;;;;5086501;28;20070;-69
2021/01/08 09:54:51;;;;;;;9.57;6.15;;;128.10;2252.80;;;;;;5085609;28;20028;-66
2021/01/08 09:57:26;;;;;;;15.13;9.02;;;128.30;2252.80;;;;;;5086371;28;20019;-66
2021/01/08 09:59:54;;;;;;;18.25;11.75;;;128.30;2252.80;;;;;;5085744;28;20033;-66
2021/01/08 10:02:52;;;;;;;12.25;7.93;;;128.50;2252.80;;;;;;5087557;28;20073;-66
2021/01/08 10:05:27;;;;;;;12.70;8.43;;;128.50;2252.80;;;;;;5087830;28;20070;-67
2021/01/08 10:07:55;;;;;;;14.48;9.13;;;128.60;2252.80;;;;;;5081379;28;20021;-67
2021/01/08 10:10:26;;;;;;;12.38;7.38;;;128.60;2252.80;;;;;;5081643;28;20035;-66
2021/01/08 10:12:58;;;;;;;10.38;6.90;;;128.80;2252.80;;;;;;5081243;28;20024;-67
2021/01/08 10:15:37;;;;;;;11.25;8.02;;;128.70;2252.80;;;;;;5081547;28;20421;-68
2021/01/08 10:18:08;;;;;;;16.85;10.20;;;128.60;2252.80;;;;;;5081774;28;20020;-66
2021/01/08 10:20:48;;;;;;;12.70;9.05;;;128.60;2252.80;;;;;;5083921;28;20031;-68
2021/01/08 10:23:16;;;;;;;15.43;9.77;;;128.20;2252.80;;;;;;5080552;28;20024;-67
2021/01/08 10:25:43;;;;;;;10.02;7.00;;;128.00;2252.80;;;;;;5079792;28;20085;-66
2021/01/08 10:28:18;;;;;;;10.60;6.90;;;103.20;2227.20;;;;;;5080460;28;20029;-66
2021/01/08 10:30:46;;;;;;;18.52;9.90;;;103.20;2227.20;;;;;;5079906;28;20166;-66
2021/01/08 10:33:12;;;;;;;7.40;4.63;;;103.30;2227.20;;;;;;5082999;28;20043;-64
2021/01/08 10:35:44;;;;;;;6.15;3.78;;;103.10;2227.20;;;;;;5097204;28;20024;-66
2021/01/08 10:38:10;;;;;;;17.50;9.65;;;103.00;2227.20;;;;;;5078412;28;20040;-67
2021/01/08 10:40:42;;;;;;;18.27;9.25;;;103.10;2227.20;;;;;;5086525;28;20031;-65
2021/01/08 10:43:09;;;;;;;7.95;5.55;;;102.80;2227.20;;;;;;5090535;28;20333;-66
2021/01/08 10:45:35;;;;;;;6.85;4.97;;;102.70;2227.20;;;;;;5087713;28;20020;-68
2021/01/08 10:48:01;;;;;;;6.68;3.72;;;102.60;2227.20;;;;;;5084494;28;20032;-66
2021/01/08 10:50:26;;;;;;;6.25;4.10;;;102.60;2227.20;;;;;;5089533;28;20046;-66
2021/01/08 10:52:52;;;;;;;4.97;3.53;;;102.50;2227.20;;;;;;5090065;28;20396;-66
2021/01/08 10:55:20;;;;;;;4.45;2.72;;;102.40;2227.20;;;;;;5087072;28;20078;-67
2021/01/08 10:57:46;;;;;;;3.40;2.20;;;102.40;2227.20;;;;;;5087526;28;20049;-67
2021/01/08 11:00:17;;;;;;;4.22;2.72;;;102.40;2227.20;;;;;;5087119;28;20016;-67
2021/01/08 11:02:43;;;;;;;4.70;3.15;;;77.60;2227.20;;;;;;5088824;28;20042;-68
2021/01/08 11:05:10;;;;;;;5.95;3.97;;;77.50;2227.20;;;;;;5089516;28;20032;-67
2021/01/08 11:07:37;;;;;;;5.05;3.40;;;77.60;2227.20;;;;;;5093030;28;20038;-67
2021/01/08 11:10:09;;;;;;;6.50;4.38;;;77.50;2227.20;;;;;;5091320;28;20474;-68
2021/01/08 11:12:35;;;;;;;8.15;5.45;;;77.50;2227.20;;;;;;5091419;28;20028;-65
2021/01/08 11:15:07;;;;;;;9.10;6.00;;;77.40;2227.20;;;;;;5086007;28;20089;-67
2021/01/08 11:17:37;;;;;;;9.75;6.55;;;77.40;2227.20;;;;;;5087507;28;20023;-65
2021/01/08 11:20:05;;;;;;;12.93;7.65;;;77.50;2227.20;;;;;;5078786;28;20051;-66
2021/01/08 11:22:31;;;;;;;10.30;6.13;;;77.50;2227.20;;;;;;5082047;28;20327;-65
2021/01/08 11:24:57;;;;;;;12.30;7.60;;;77.60;2227.20;;;;;;5093859;28;20035;-65
2021/01/08 11:27:23;;;;;;;9.02;5.05;;;77.50;2227.20;;;;;;5079172;28;20028;-66
2021/01/08 11:29:49;;;;;;;8.30;4.75;;;77.60;2227.20;;;;;;5078486;28;20024;-67
2021/01/08 11:32:15;;;;;;;9.30;5.70;;;77.60;2227.20;;;;;;5078742;28;20043;-65
2021/01/08 11:34:41;;;;;;;6.00;3.58;;;77.60;2227.20;;;;;;5078762;28;20028;-65
2021/01/08 11:37:07;;;;;;;8.35;5.40;;;77.60;2227.20;;;;;;5078663;28;20056;-66
2021/01/08 11:39:33;;;;;;;7.65;5.70;;;77.60;2227.20;;;;;;5098406;28;20114;-67
2021/01/08 11:41:59;;;;;;;9.43;5.80;;;77.70;2227.20;;;;;;5097422;28;20103;-67
2021/01/08 11:44:25;;;;;;;11.13;6.63;;;102.40;2227.20;;;;;;5097396;28;20031;-64
2021/01/08 11:46:51;;;;;;;11.02;7.25;;;102.40;2227.20;;;;;;5098303;28;20028;-65
2021/01/08 11:49:18;;;;;;;14.65;8.18;;;102.50;2227.20;;;;;;5098441;28;20034;-67
2021/01/08 11:51:45;;;;;;;18.63;10.70;;;102.60;2227.20;;;;;;5097966;28;20131;-68
2021/01/08 11:54:11;;;;;;;11.60;6.72;;;102.60;2227.20;;;;;;5098508;28;20028;-67
2021/01/08 11:56:37;;;;;;;18.35;11.57;;;102.60;2227.20;;;;;;5098774;28;20027;-66
2021/01/08 11:59:04;;;;;;;26.13;15.57;;;102.60;2227.20;;;;;;5097951;28;20020;-67
2021/01/08 12:01:30;;;;;;;51.65;34.13;;;102.70;2227.20;;;;;;5098972;28;20039;-66
2021/01/08 12:03:57;;;;;;;22.05;15.32;;;102.60;2227.20;;;;;;5098610;28;20047;-65
2021/01/08 12:06:33;;;;;;;17.73;11.35;;;102.40;2227.20;;;;;;5089529;28;20397;-65
2021/01/08 12:09:04;;;;;;;29.98;16.90;;;77.60;2227.20;;;;;;5087740;28;20028;-67
2021/01/08 12:11:30;;;;;;;44.97;25.08;;;77.60;2227.20;;;;;;5085870;28;20028;-68
2021/01/08 12:13:59;;;;;;;38.08;22.08;;;77.70;2227.20;;;;;;5088689;28;20077;-65
2021/01/08 12:16:32;;;;;;;13.13;7.57;;;102.40;2227.20;;;;;;5090579;28;20024;-66
2021/01/08 12:18:59;;;;;;;6.80;4.78;;;102.40;2227.20;;;;;;5087387;28;20028;-67
2021/01/08 12:21:27;;;;;;;6.72;4.72;;;77.70;2227.20;;;;;;5086709;28;20353;-65
2021/01/08 12:23:53;;;;;;;6.72;4.25;;;102.40;2227.20;;;;;;5086702;28;20028;-66
2021/01/08 12:26:20;;;;;;;7.80;5.30;;;102.40;2227.20;;;;;;5088322;28;20048;-67